Time;durP1;ratioP1;P1;durP2;ratioP2;P2;SDS_P1;SDS_P2;PMS_P1;PMS_P2;Temp;Humidity;BMP_temperature;BMP_pressure;BME280_temperature;BME280_humidity;BME280_pressure;Samples;Min_cycle;Max_cycle;Signal;HPM_P1;HPM_P2
2022/04/13 00:01:58;;;;;;;5.80;2.50;;;;;;;6.02;38.09;100547.91;117196;1186;21851;-57
2022/04/13 00:04:27;;;;;;;6.80;2.40;;;;;;;6.01;38.14;100548.59;117296;1186;23551;-49
2022/04/13 00:06:55;;;;;;;4.50;2.30;;;;;;;6.01;38.37;100543.88;117300;1185;23574;-57
2022/04/13 00:09:43;;;;;;;6.60;2.30;;;;;;;6.00;38.01;100542.47;117217;1186;21839;-49
2022/04/13 00:12:12;;;;;;;7.10;2.70;;;;;;;6.00;38.43;100541.44;117290;1185;23558;-57
2022/04/13 00:14:40;;;;;;;7.60;2.20;;;;;;;6.00;38.44;100542.66;117303;1184;23555;-55
2022/04/13 00:17:09;;;;;;;5.60;2.50;;;;;;;6.00;38.40;100537.96;117243;1185;23576;-56
2022/04/13 00:19:38;;;;;;;6.70;2.20;;;;;;;6.00;38.45;100537.42;117195;1186;23556;-57
2022/04/13 00:22:21;;;;;;;5.90;2.20;;;;;;;6.00;38.53;100537.06;117264;1186;23581;-57
2022/04/13 00:24:49;;;;;;;5.70;1.90;;;;;;;5.98;38.57;100533.73;117296;1186;23577;-57
2022/04/13 00:27:17;;;;;;;4.90;2.30;;;;;;;5.97;38.58;100534.94;117232;1186;23649;-57
2022/04/13 00:29:45;;;;;;;6.10;2.20;;;;;;;5.95;38.48;100532.33;117230;1186;21962;-57
2022/04/13 00:32:14;;;;;;;5.00;2.20;;;;;;;5.92;38.45;100531.41;117150;1186;22816;-48
2022/04/13 00:34:44;;;;;;;7.10;2.40;;;;;;;5.90;38.53;100530.52;117093;1186;22806;-49
2022/04/13 00:37:12;;;;;;;8.50;2.60;;;;;;;5.86;38.55;100531.02;117246;1185;23552;-49
2022/04/13 00:39:43;;;;;;;8.90;3.30;;;;;;;5.82;38.48;100527.30;117384;1185;23657;-56
2022/04/13 00:42:16;;;;;;;5.20;2.30;;;;;;;5.78;38.47;100529.02;117305;1186;23576;-56
2022/04/13 00:44:45;;;;;;;4.30;2.40;;;;;;;5.74;38.55;100530.55;117259;1186;22807;-49
2022/04/13 00:47:13;;;;;;;7.30;2.60;;;;;;;5.70;38.49;100528.77;117154;1186;23564;-57
2022/04/13 00:50:00;;;;;;;7.40;2.40;;;;;;;5.65;38.70;100523.15;117158;1186;21937;-56
2022/04/13 00:52:28;;;;;;;6.40;2.40;;;;;;;5.59;38.68;100522.91;117213;1185;23576;-48
2022/04/13 00:54:57;;;;;;;8.60;3.00;;;;;;;5.54;38.83;100521.27;117046;1186;23052;-48
2022/04/13 00:57:25;;;;;;;5.50;2.60;;;;;;;5.49;38.73;100521.08;117197;1181;22756;-48
2022/04/13 00:59:55;;;;;;;8.30;3.20;;;;;;;5.46;38.86;100517.73;117119;1187;23569;-56
2022/04/13 01:02:23;;;;;;;6.50;2.70;;;;;;;5.44;38.81;100515.95;117140;1188;22943;-56
2022/04/13 01:04:53;;;;;;;6.10;2.70;;;;;;;5.40;38.84;100512.61;117231;1186;21850;-56
2022/04/13 01:07:21;;;;;;;7.60;2.40;;;;;;;5.37;38.94;100510.83;117324;1186;23703;-47
2022/04/13 01:09:51;;;;;;;5.10;2.30;;;;;;;5.34;39.08;100506.27;117273;1185;23554;-55
2022/04/13 01:12:20;;;;;;;6.80;3.00;;;;;;;5.32;38.98;100509.20;117289;1186;23576;-55
2022/04/13 01:14:48;;;;;;;5.20;2.50;;;;;;;5.29;38.85;100512.31;117247;1186;23567;-55
2022/04/13 01:17:16;;;;;;;7.20;2.60;;;;;;;5.25;39.30;100508.96;117329;1186;21859;-47
2022/04/13 01:19:46;;;;;;;8.10;3.00;;;;;;;5.22;39.21;100506.84;117289;1186;23554;-47
2022/04/13 01:22:34;;;;;;;5.80;2.70;;;;;;;5.18;39.37;100507.67;117243;1185;21859;-56
2022/04/13 01:25:06;;;;;;;7.90;3.10;;;;;;;5.14;39.31;100504.65;117248;1186;21841;-56
2022/04/13 01:27:54;;;;;;;8.40;3.10;;;;;;;5.13;39.40;100497.33;117162;1183;21855;-56
2022/04/13 01:30:24;;;;;;;8.40;2.90;;;;;;;5.09;39.45;100497.46;117182;1186;23555;-48
2022/04/13 01:32:53;;;;;;;7.10;2.70;;;;;;;5.07;39.35;100495.17;117179;1185;21853;-57
2022/04/13 01:35:24;;;;;;;6.50;3.20;;;;;;;5.06;39.22;100496.21;117243;1186;22807;-57
2022/04/13 01:37:53;;;;;;;10.60;2.90;;;;;;;5.05;39.45;100495.87;117286;1186;23591;-57
2022/04/13 01:40:21;;;;;;;6.90;3.10;;;;;;;5.05;39.58;100497.25;117257;1188;23674;-48
2022/04/13 01:43:09;;;;;;;7.40;2.80;;;;;;;5.06;39.56;100494.48;117223;1182;21839;-57
2022/04/13 01:45:38;;;;;;;7.00;2.60;;;;;;;5.05;39.68;100492.73;117297;1186;23650;-48
2022/04/13 01:48:09;;;;;;;6.00;3.00;;;;;;;5.06;39.48;100485.96;117283;1186;23566;-57
2022/04/13 01:50:37;;;;;;;8.00;3.50;;;;;;;5.07;39.67;100484.23;117147;1185;21882;-49
2022/04/13 01:53:08;;;;;;;11.30;3.30;;;;;;;5.08;39.72;100478.67;117293;1180;21845;-48
2022/04/13 01:55:57;;;;;;;6.60;3.00;;;;;;;5.09;39.79;100473.28;117286;1183;22858;-48
2022/04/13 01:58:25;;;;;;;7.90;3.20;;;;;;;5.10;39.87;100469.46;117248;1185;23568;-48
2022/04/13 02:00:55;;;;;;;7.10;3.20;;;;;;;5.10;39.80;100467.20;117279;1186;21844;-57
2022/04/13 02:03:44;;;;;;;8.90;3.30;;;;;;;5.10;39.88;100464.42;117222;1186;21868;-57
2022/04/13 02:06:14;;;;;;;10.00;3.40;;;;;;;5.09;39.66;100467.02;117347;1186;23673;-57
2022/04/13 02:08:42;;;;;;;8.50;3.40;;;;;;;5.08;39.79;100462.84;117247;1186;21859;-48
2022/04/13 02:11:12;;;;;;;6.30;3.10;;;;;;;5.06;39.81;100466.30;117242;1186;23551;-48
2022/04/13 02:13:43;;;;;;;8.10;3.20;;;;;;;5.04;39.89;100466.98;117283;1186;21853;-57
2022/04/13 02:16:31;;;;;;;6.70;3.40;;;;;;;5.03;39.91;100462.10;117116;1186;21861;-48
2022/04/13 02:19:00;;;;;;;10.00;3.80;;;;;;;5.02;40.03;100462.96;117131;1186;23553;-57
2022/04/13 02:21:30;;;;;;;8.70;3.10;;;;;;;5.02;39.94;100462.96;117337;1186;23017;-48
2022/04/13 02:24:18;;;;;;;5.50;3.10;;;;;;;5.04;40.02;100461.59;117241;1186;22166;-48
2022/04/13 02:26:48;;;;;;;7.10;4.00;;;;;;;5.04;40.01;100454.10;117221;1186;21853;-56
2022/04/13 02:29:16;;;;;;;10.00;3.40;;;;;;;5.05;40.24;100453.08;117273;1185;23555;-48
2022/04/13 02:31:44;;;;;;;11.10;3.00;;;;;;;5.06;39.99;100452.90;117269;1185;22846;-57
2022/04/13 02:34:33;;;;;;;16.50;3.80;;;;;;;5.05;40.45;100451.34;117208;1186;21853;-49
2022/04/13 02:37:01;;;;;;;9.00;3.60;;;;;;;5.05;40.09;100461.41;117253;1186;22640;-49
2022/04/13 02:39:30;;;;;;;7.60;3.80;;;;;;;5.04;40.31;100463.66;117282;1185;23555;-57
2022/04/13 02:41:58;;;;;;;7.20;3.70;;;;;;;5.03;40.28;100457.23;117280;1185;22966;-49
2022/04/13 02:44:27;;;;;;;8.70;3.80;;;;;;;5.01;40.25;100461.91;117197;1185;23613;-56
2022/04/13 02:46:57;;;;;;;7.70;3.20;;;;;;;5.00;40.20;100461.02;117269;1182;22833;-49
2022/04/13 02:49:27;;;;;;;6.50;3.30;;;;;;;4.97;40.32;100459.23;117261;1185;23602;-48
2022/04/13 02:51:57;;;;;;;10.00;3.40;;;;;;;4.95;40.54;100461.30;117282;1186;23534;-50
2022/04/13 02:54:25;;;;;;;12.00;3.50;;;;;;;4.93;40.19;100464.74;117234;1187;23004;-49
2022/04/13 02:56:55;;;;;;;9.40;3.20;;;;;;;4.89;40.43;100466.09;117257;1186;21860;-48
2022/04/13 02:59:23;;;;;;;6.60;2.80;;;;;;;4.87;40.54;100465.55;117304;1186;22723;-57
2022/04/13 03:01:53;;;;;;;7.30;3.50;;;;;;;4.86;40.53;100463.27;117258;1185;22829;-49
2022/04/13 03:04:32;;;;;;;7.00;3.50;;;;;;;4.86;40.53;100461.02;117266;1186;23578;-46
2022/04/13 03:07:00;;;;;;;6.50;3.00;;;;;;;4.85;40.54;100462.05;117234;1186;21851;-57
2022/04/13 03:09:28;;;;;;;11.30;3.20;;;;;;;4.85;40.53;100461.35;117263;1186;23593;-56
2022/04/13 03:11:57;;;;;;;10.00;3.40;;;;;;;4.83;40.49;100463.77;117101;1183;22826;-57
2022/04/13 03:14:26;;;;;;;7.50;3.30;;;;;;;4.83;40.41;100464.64;117035;1186;23554;-57
2022/04/13 03:16:54;;;;;;;8.60;3.40;;;;;;;4.83;40.50;100462.20;117289;1186;22000;-47
2022/04/13 03:19:23;;;;;;;7.80;3.80;;;;;;;4.83;40.83;100465.86;117228;1186;21885;-46
2022/04/13 03:21:54;;;;;;;7.10;3.20;;;;;;;4.84;40.86;100466.21;117227;1186;23574;-49
2022/04/13 03:24:23;;;;;;;9.80;3.60;;;;;;;4.83;40.63;100465.15;117254;1187;21870;-49
2022/04/13 03:26:52;;;;;;;9.30;3.40;;;;;;;4.83;40.70;100464.10;117243;1186;23566;-57
2022/04/13 03:29:20;;;;;;;8.20;3.90;;;;;;;4.82;40.84;100463.92;117309;1185;21844;-57
2022/04/13 03:31:48;;;;;;;7.60;3.10;;;;;;;4.84;40.86;100463.25;117287;1185;23555;-57
2022/04/13 03:34:20;;;;;;;6.40;3.20;;;;;;;4.86;40.79;100463.63;117254;1181;23713;-58
2022/04/13 03:36:49;;;;;;;10.20;3.40;;;;;;;4.87;40.75;100459.82;117268;1186;21860;-50
2022/04/13 03:39:17;;;;;;;5.80;2.80;;;;;;;4.90;40.92;100455.33;117207;1186;21860;-50
2022/04/13 03:41:46;;;;;;;9.60;3.60;;;;;;;4.94;41.01;100454.16;117245;1186;23553;-57
2022/04/13 03:44:15;;;;;;;8.00;3.40;;;;;;;4.99;41.18;100449.02;117295;1186;23688;-58
2022/04/13 03:46:44;;;;;;;8.60;3.20;;;;;;;5.04;41.02;100447.14;117259;1186;23622;-59
2022/04/13 03:49:13;;;;;;;8.70;3.70;;;;;;;5.08;40.92;100444.76;117287;1186;21883;-58
2022/04/13 03:51:46;;;;;;;10.30;4.10;;;;;;;5.12;41.23;100442.17;117298;1186;23642;-50
2022/04/13 03:54:14;;;;;;;11.50;4.20;;;;;;;5.17;41.32;100442.06;117225;1186;23596;-50
2022/04/13 03:56:42;;;;;;;12.30;3.50;;;;;;;5.21;41.05;100442.63;117227;1185;23555;-58
2022/04/13 03:59:11;;;;;;;6.60;3.40;;;;;;;5.23;41.36;100439.52;117309;1186;23574;-58
2022/04/13 04:01:49;;;;;;;7.80;3.00;;;;;;;5.26;41.41;100443.38;117217;1186;22641;-49
2022/04/13 04:04:18;;;;;;;6.50;2.90;;;;;;;5.27;41.22;100441.30;117303;1186;22301;-58
2022/04/13 04:06:58;;;;;;;9.40;3.20;;;;;;;5.29;41.48;100436.11;117159;1186;23650;-58
2022/04/13 04:09:27;;;;;;;8.80;3.30;;;;;;;5.33;41.43;100433.52;117228;1186;23560;-50
2022/04/13 04:11:55;;;;;;;8.00;3.30;;;;;;;5.37;41.43;100433.23;117213;1185;23613;-58
2022/04/13 04:14:24;;;;;;;7.40;3.00;;;;;;;5.42;41.30;100431.38;117240;1186;23570;-57
2022/04/13 04:16:53;;;;;;;6.70;3.40;;;;;;;5.46;41.22;100431.58;117243;1186;23573;-58
2022/04/13 04:19:21;;;;;;;7.70;3.60;;;;;;;5.52;41.47;100430.41;117211;1185;23688;-58
2022/04/13 04:21:51;;;;;;;7.00;3.50;;;;;;;5.58;41.41;100434.11;117127;1186;22884;-58
2022/04/13 04:24:20;;;;;;;8.40;2.90;;;;;;;5.65;41.78;100442.02;117204;1185;21846;-49
2022/04/13 04:27:08;;;;;;;7.60;2.90;;;;;;;5.68;41.63;100435.43;117178;1186;21864;-58
2022/04/13 04:29:37;;;;;;;7.80;3.60;;;;;;;5.67;41.81;100434.02;117161;1186;23541;-56
2022/04/13 04:32:07;;;;;;;9.40;4.10;;;;;;;5.73;41.79;100431.80;117197;1186;22648;-58
2022/04/13 04:34:36;;;;;;;7.70;3.50;;;;;;;5.81;41.88;100436.40;117240;1186;21967;-48
2022/04/13 04:37:04;;;;;;;6.90;3.20;;;;;;;5.89;41.90;100434.02;117298;1186;22985;-48
2022/04/13 04:39:33;;;;;;;6.90;3.40;;;;;;;5.96;42.00;100437.04;117419;1186;22620;-57
2022/04/13 04:42:04;;;;;;;5.50;2.90;;;;;;;6.03;41.98;100436.60;117309;1185;23555;-48
2022/04/13 04:44:32;;;;;;;;;;;;;;;6.12;42.16;100432.14;117292;1185;24252;-50
2022/04/13 04:47:20;;;;;;;6.90;3.00;;;;;;;6.36;42.15;100428.27;118886;1183;22932;-57
2022/04/13 04:49:48;;;;;;;8.50;3.40;;;;;;;6.49;41.78;100426.60;117238;1186;24014;-57
2022/04/13 04:52:16;;;;;;;8.20;3.20;;;;;;;6.59;41.97;100429.10;117298;1186;23573;-57
2022/04/13 04:54:46;;;;;;;6.20;3.40;;;;;;;6.68;41.81;100430.18;117269;1186;23576;-49
2022/04/13 04:57:14;;;;;;;7.00;3.30;;;;;;;6.79;42.17;100428.14;116969;1189;23667;-57
2022/04/13 04:59:43;;;;;;;7.50;3.00;;;;;;;6.90;41.86;100423.81;117256;1186;23015;-47
2022/04/13 05:02:11;;;;;;;10.20;3.30;;;;;;;6.99;41.86;100419.66;117215;1186;22912;-57
2022/04/13 05:04:50;;;;;;;6.80;3.00;;;;;;;7.09;42.37;100416.71;117271;1185;23547;-48
2022/04/13 05:07:19;;;;;;;7.50;3.50;;;;;;;7.08;42.37;100415.15;117410;1184;23647;-48
2022/04/13 05:10:07;;;;;;;6.60;3.20;;;;;;;7.19;42.64;100419.38;117389;1185;21871;-50
2022/04/13 05:12:45;;;;;;;8.90;3.50;;;;;;;7.29;42.42;100409.44;117248;1186;23560;-58
2022/04/13 05:15:25;;;;;;;8.30;3.30;;;;;;;7.41;42.44;100408.41;117122;1185;22705;-58
2022/04/13 05:17:54;;;;;;;6.20;2.80;;;;;;;7.54;42.51;100405.45;117023;1185;21845;-58
2022/04/13 05:20:36;;;;;;;7.80;2.90;;;;;;;7.69;42.48;100409.48;117083;1185;22839;-57
2022/04/13 05:23:04;;;;;;;6.70;3.00;;;;;;;7.79;42.65;100404.74;117126;1185;23598;-49
2022/04/13 05:25:33;;;;;;;9.80;3.40;;;;;;;7.88;42.43;100404.58;117274;1185;23388;-49
2022/04/13 05:28:21;;;;;;;6.80;2.90;;;;;;;8.00;42.41;100401.58;117195;1186;22182;-57
2022/04/13 05:30:49;;;;;;;6.40;2.80;;;;;;;8.15;42.45;100405.06;117258;1185;23557;-50
2022/04/13 05:33:18;;;;;;;8.40;2.90;;;;;;;8.34;42.81;100405.36;117051;1185;21851;-50
2022/04/13 05:35:46;;;;;;;5.70;2.50;;;;;;;8.55;42.73;100407.95;119278;1185;21778;-57
2022/04/13 05:38:15;;;;;;;5.50;2.80;;;;;;;8.68;42.54;100400.03;117849;1186;21862;-48
2022/04/13 05:40:44;;;;;;;6.80;3.50;;;;;;;8.74;42.48;100401.23;117295;1186;21862;-57
2022/04/13 05:43:12;;;;;;;6.60;2.80;;;;;;;8.83;42.48;100400.14;117155;1185;23909;-49
2022/04/13 05:45:51;;;;;;;5.40;2.30;;;;;;;8.92;42.39;100396.94;118137;1185;22098;-57
2022/04/13 05:48:20;;;;;;;6.50;3.00;;;;;;;9.00;42.53;100395.51;118187;1185;21899;-49
2022/04/13 05:51:00;;;;;;;6.00;2.60;;;;;;;9.13;42.44;100393.51;117108;1185;23578;-57
2022/04/13 05:53:30;;;;;;;11.20;3.00;;;;;;;9.24;42.50;100386.61;117731;1185;23554;-56
2022/04/13 05:55:59;;;;;;;6.30;3.30;;;;;;;9.35;42.41;100377.08;117233;1185;23579;-57
2022/04/13 05:58:28;;;;;;;5.60;2.60;;;;;;;9.47;42.38;100375.94;117281;1185;23569;-49
2022/04/13 06:00:57;;;;;;;5.30;2.50;;;;;;;9.57;42.38;100376.38;117312;1185;21848;-57
2022/04/13 06:03:26;;;;;;;7.20;2.60;;;;;;;9.67;42.45;100373.85;117322;1186;23717;-57
2022/04/13 06:06:08;;;;;;;5.90;3.10;;;;;;;9.80;42.32;100371.80;117151;1185;24287;-50
2022/04/13 06:08:37;;;;;;;5.40;2.30;;;;;;;9.94;42.38;100367.48;117273;1186;22943;-57
2022/04/13 06:11:21;;;;;;;7.50;2.60;;;;;;;10.02;42.22;100360.55;117197;1186;23554;-49
2022/04/13 06:13:49;;;;;;;3.70;2.10;;;;;;;10.13;42.37;100362.20;117279;1182;23579;-50
2022/04/13 06:16:23;;;;;;;6.00;2.30;;;;;;;10.31;42.32;100359.36;117259;1185;23582;-49
2022/04/13 06:18:52;;;;;;;6.20;2.90;;;;;;;10.45;42.22;100359.05;117309;1186;23551;-56
2022/04/13 06:21:20;;;;;;;6.50;2.70;;;;;;;10.52;42.31;100355.98;117295;1186;23554;-49
2022/04/13 06:23:50;;;;;;;6.10;2.40;;;;;;;10.58;42.21;100361.18;117250;1185;23544;-49
2022/04/13 06:26:19;;;;;;;5.70;1.90;;;;;;;10.69;42.32;100355.41;117424;1185;21916;-57
2022/04/13 06:28:49;;;;;;;;;;;;;;;10.78;42.13;100351.09;117285;1186;23535;-56
2022/04/13 06:31:18;;;;;;;4.00;1.90;;;;;;;10.94;42.38;100347.37;117263;1186;22939;-49
2022/04/13 06:33:48;;;;;;;5.40;2.20;;;;;;;11.06;42.12;100340.17;117310;1186;22983;-49
2022/04/13 06:36:16;;;;;;;7.20;2.30;;;;;;;11.18;42.05;100337.88;117302;1186;21886;-49
2022/04/13 06:38:45;;;;;;;7.80;2.40;;;;;;;11.26;41.86;100336.52;117209;1186;23476;-57
2022/04/13 06:41:14;;;;;;;3.80;2.00;;;;;;;11.51;41.85;100334.36;117390;1185;24158;-57
2022/04/13 06:43:42;;;;;;;5.20;2.00;;;;;;;11.68;41.97;100333.55;117272;1186;23567;-57
2022/04/13 06:46:11;;;;;;;6.30;2.50;;;;;;;11.69;41.94;100327.38;117258;1186;21861;-49
2022/04/13 06:48:39;;;;;;;3.90;1.70;;;;;;;11.84;42.18;100323.77;117321;1184;23568;-50
2022/04/13 06:51:08;;;;;;;6.10;1.90;;;;;;;12.02;41.88;100329.25;117310;1186;21959;-57
2022/04/13 06:53:36;;;;;;;6.70;1.50;;;;;;;12.11;41.34;100323.48;117271;1186;21868;-57
2022/04/13 06:56:04;;;;;;;7.60;1.80;;;;;;;12.18;41.45;100323.51;117314;1186;23638;-56
2022/04/13 06:58:35;;;;;;;5.60;1.90;;;;;;;12.31;41.64;100320.09;117220;1185;23702;-49
2022/04/13 07:01:03;;;;;;;4.00;1.70;;;;;;;12.38;41.22;100315.19;117237;1186;21849;-49
2022/04/13 07:03:32;;;;;;;7.10;1.50;;;;;;;12.54;41.41;100317.85;119346;1185;22206;-52
2022/04/13 07:06:01;;;;;;;4.70;1.50;;;;;;;12.68;41.13;100316.84;117980;1186;21852;-58
2022/04/13 07:08:31;;;;;;;5.60;1.50;;;;;;;12.76;40.65;100317.53;117133;1185;23688;-59
2022/04/13 07:11:13;;;;;;;8.30;1.80;;;;;;;12.84;40.56;100312.63;117125;1186;23552;-49
2022/04/13 07:13:41;;;;;;;6.50;1.90;;;;;;;12.96;40.97;100309.19;117263;1185;23550;-49
2022/04/13 07:16:29;;;;;;;5.50;1.50;;;;;;;13.06;40.00;100315.62;117155;1186;21852;-56
2022/04/13 07:18:58;;;;;;;3.90;1.50;;;;;;;13.00;39.83;100309.95;117274;1186;23553;-57
2022/04/13 07:21:26;;;;;;;5.00;1.50;;;;;;;12.99;39.84;100308.75;117379;1186;21852;-57
2022/04/13 07:24:14;;;;;;;4.30;1.40;;;;;;;13.05;40.22;100310.20;117284;1186;23650;-57
2022/04/13 07:26:43;;;;;;;3.50;1.30;;;;;;;13.11;39.95;100310.77;117233;1186;23552;-57
2022/04/13 07:29:11;;;;;;;4.10;1.30;;;;;;;13.16;40.04;100307.13;117297;1185;23541;-57
2022/04/13 07:31:40;;;;;;;4.20;1.40;;;;;;;13.21;39.76;100307.52;117644;1184;23576;-57
2022/04/13 07:34:28;;;;;;;2.80;1.30;;;;;;;13.27;39.60;100310.56;117264;1185;22305;-49
2022/04/13 07:36:57;;;;;;;6.30;1.30;;;;;;;13.31;39.87;100303.93;117171;1186;21889;-49
2022/04/13 07:39:26;;;;;;;3.60;1.20;;;;;;;13.37;39.69;100296.73;117386;1186;23579;-50
2022/04/13 07:41:54;;;;;;;3.40;1.20;;;;;;;13.46;39.55;100300.42;117347;1186;21858;-49
2022/04/13 07:44:22;;;;;;;9.70;1.90;;;;;;;13.55;39.67;100304.06;117292;1186;21861;-57
2022/04/13 07:47:16;;;;;;;3.80;1.20;;;;;;;13.81;39.68;100298.83;117302;1186;22172;-59
2022/04/13 07:49:45;;;;;;;6.30;1.70;;;;;;;14.05;39.51;100297.45;117389;1185;21852;-59
2022/04/13 07:52:14;;;;;;;4.00;1.30;;;;;;;14.41;39.78;100296.77;117489;1185;22628;-50
2022/04/13 07:54:52;;;;;;;3.80;1.40;;;;;;;14.64;39.39;100294.51;117236;1186;24182;-50
2022/04/13 07:57:21;;;;;;;3.90;1.40;;;;;;;14.81;39.23;100295.42;117339;1186;24176;-49
2022/04/13 07:59:51;;;;;;;4.40;1.70;;;;;;;14.95;38.90;100295.52;117361;1183;21854;-58
2022/04/13 08:02:37;;;;;;;5.40;2.50;;;;;;;14.90;38.22;100293.38;119034;1185;22304;-52
2022/04/13 08:05:05;;;;;;;4.50;1.70;;;;;;;14.78;38.28;100288.11;119361;1183;21767;-59
2022/04/13 08:07:34;;;;;;;6.40;1.70;;;;;;;14.68;38.33;100284.84;119420;1185;21775;-58
2022/04/13 08:10:02;;;;;;;5.60;1.90;;;;;;;14.70;38.67;100289.75;119360;1185;21898;-58
2022/04/13 08:12:32;;;;;;;3.80;1.30;;;;;;;14.73;38.54;100291.96;119347;1184;21889;-50
2022/04/13 08:15:03;;;;;;;4.90;1.90;;;;;;;14.67;37.90;100293.89;117289;1186;21855;-57
2022/04/13 08:17:33;;;;;;;3.10;1.40;;;;;;;14.49;37.31;100295.64;119459;1185;21771;-51
2022/04/13 08:20:01;;;;;;;3.00;1.30;;;;;;;14.27;37.26;100287.46;119289;1185;21817;-58
2022/04/13 08:22:30;;;;;;;4.30;1.70;;;;;;;14.18;37.30;100289.33;119307;1185;22102;-47
2022/04/13 08:24:58;;;;;;;12.20;8.00;;;;;;;14.05;37.38;100292.16;118019;1186;23567;-55
2022/04/13 08:27:28;;;;;;;6.30;2.90;;;;;;;14.07;37.97;100284.00;118057;1186;21846;-48
2022/04/13 08:29:56;;;;;;;4.40;3.00;;;;;;;14.16;37.22;100289.02;119347;1185;22527;-56
2022/04/13 08:32:37;;;;;;;7.50;1.80;;;;;;;14.29;37.08;100289.38;119214;1186;21794;-56
2022/04/13 08:35:09;;;;;;;5.50;1.10;;;;;;;14.32;37.19;100284.15;119338;1185;21784;-48
2022/04/13 08:37:37;;;;;;;3.20;1.20;;;;;;;14.40;37.32;100283.04;119350;1186;21779;-49
2022/04/13 08:40:13;;;;;;;10.90;1.90;;;;;;;14.50;37.29;100279.91;119298;1184;21769;-50
2022/04/13 08:43:04;;;;;;;5.10;1.40;;;;;;;14.53;37.51;100280.52;119052;1185;23558;-48
2022/04/13 08:45:42;;;;;;;3.80;1.30;;;;;;;14.54;37.28;100286.34;117198;1182;22158;-56
2022/04/13 08:48:11;;;;;;;3.30;1.40;;;;;;;14.52;37.32;100279.34;118222;1186;21843;-58
2022/04/13 08:50:40;;;;;;;2.30;1.30;;;;;;;14.56;37.45;100274.08;117381;1186;22671;-49
2022/04/13 08:53:12;;;;;;;2.30;1.10;;;;;;;14.57;37.08;100272.27;117135;1189;23518;-49
2022/04/13 08:55:47;;;;;;;4.00;1.10;;;;;;;14.58;37.33;100271.02;117282;1186;22905;-49
2022/04/13 08:58:43;;;;;;;2.90;1.10;;;;;;;14.62;37.15;100267.71;117218;1181;22926;-58
2022/04/13 09:01:16;;;;;;;1.90;1.00;;;;;;;14.57;37.46;100273.00;117133;1186;22915;-58
2022/04/13 09:03:49;;;;;;;2.60;1.60;;;;;;;14.53;37.49;100272.05;117299;1186;21847;-58
2022/04/13 09:06:19;;;;;;;4.70;1.30;;;;;;;14.50;37.38;100261.53;117195;1186;23526;-58
2022/04/13 09:08:51;;;;;;;3.90;1.60;;;;;;;14.49;37.50;100263.18;117284;1186;23000;-58
2022/04/13 09:11:38;;;;;;;2.90;1.30;;;;;;;14.47;37.13;100267.46;117170;1186;22619;-59
2022/04/13 09:14:10;;;;;;;3.80;1.30;;;;;;;14.41;37.07;100271.34;117233;1184;23563;-59
2022/04/13 09:16:41;;;;;;;2.80;0.90;;;;;;;14.35;36.91;100273.13;117298;1186;23035;-58
2022/04/13 09:19:10;;;;;;;6.50;1.80;;;;;;;14.25;37.21;100273.58;117308;1185;22930;-58
2022/04/13 09:21:53;;;;;;;4.20;1.30;;;;;;;14.07;36.65;100268.81;117214;1186;22124;-51
2022/04/13 09:24:22;;;;;;;3.40;1.00;;;;;;;13.87;36.54;100270.59;116962;1186;21926;-50
2022/04/13 09:26:53;;;;;;;2.50;0.80;;;;;;;13.67;36.71;100271.83;119275;1185;22236;-48
2022/04/13 09:29:21;;;;;;;3.20;1.40;;;;;;;13.60;37.05;100275.02;119394;1185;21775;-56
2022/04/13 09:31:49;;;;;;;6.40;3.00;;;;;;;13.67;37.10;100282.08;119254;1182;22095;-56
2022/04/13 09:34:37;;;;;;;18.40;8.50;;;;;;;13.81;37.21;100278.70;119230;1186;21770;-56
2022/04/13 09:37:07;;;;;;;3.80;1.80;;;;;;;13.92;37.12;100278.92;119238;1185;21789;-50
2022/04/13 09:39:35;;;;;;;4.30;1.60;;;;;;;14.02;37.10;100280.42;119363;1185;21824;-49
2022/04/13 09:42:04;;;;;;;3.80;1.30;;;;;;;14.01;36.74;100276.75;119057;1187;21788;-49
2022/04/13 09:44:33;;;;;;;3.10;1.30;;;;;;;13.94;36.63;100275.67;119326;1185;21786;-48
2022/04/13 09:47:08;;;;;;;3.50;1.10;;;;;;;13.83;36.44;100278.46;119330;1183;22234;-50
2022/04/13 09:49:46;;;;;;;4.00;1.50;;;;;;;13.75;36.52;100285.73;119359;1184;22037;-49
2022/04/13 09:52:15;;;;;;;5.50;2.90;;;;;;;13.79;36.89;100280.70;119209;1185;22394;-59
2022/04/13 09:54:45;;;;;;;3.70;1.20;;;;;;;13.79;36.61;100281.23;119409;1185;21777;-57
2022/04/13 09:57:23;;;;;;;2.10;0.90;;;;;;;13.76;36.79;100277.94;119307;1185;21795;-48
2022/04/13 09:59:56;;;;;;;2.70;1.00;;;;;;;13.85;36.93;100280.53;119290;1185;21777;-57
2022/04/13 10:02:37;;;;;;;7.50;2.60;;;;;;;13.90;36.71;100278.65;118125;1186;23444;-56
2022/04/13 10:05:19;;;;;;;1.70;1.10;;;;;;;13.94;36.90;100279.94;119259;1186;21775;-56
2022/04/13 10:08:01;;;;;;;2.30;0.80;;;;;;;13.96;36.63;100275.48;119343;1185;21894;-57
2022/04/13 10:10:30;;;;;;;2.80;1.20;;;;;;;13.88;36.24;100276.21;119330;1182;21764;-50
2022/04/13 10:12:58;;;;;;;3.80;1.40;;;;;;;13.76;36.15;100276.70;119347;1185;21776;-57
2022/04/13 10:15:26;;;;;;;6.00;2.50;;;;;;;13.69;36.37;100273.01;119357;1185;22549;-50
2022/04/13 10:17:59;;;;;;;12.00;5.90;;;;;;;13.71;36.58;100272.11;119335;1185;21831;-50
2022/04/13 10:20:44;;;;;;;4.70;1.90;;;;;;;13.76;36.75;100271.05;119280;1185;21759;-49
2022/04/13 10:23:17;;;;;;;2.60;1.00;;;;;;;13.87;36.80;100268.48;119178;1186;21769;-51
2022/04/13 10:26:09;;;;;;;4.00;1.50;;;;;;;13.95;36.74;100263.48;119312;1185;21848;-50
2022/04/13 10:28:48;;;;;;;4.10;1.00;;;;;;;13.99;36.87;100265.87;119276;1185;21699;-50
2022/04/13 10:31:17;;;;;;;3.00;1.50;;;;;;;14.07;36.87;100267.92;119191;1186;21829;-57
2022/04/13 10:33:49;;;;;;;6.30;1.50;;;;;;;14.13;36.69;100267.95;119265;1186;21838;-56
2022/04/13 10:36:16;;;;;;;4.60;1.40;;;;;;;14.18;36.81;100273.44;119214;1185;21890;-56
2022/04/13 10:38:45;;;;;;;3.90;1.20;;;;;;;14.21;36.74;100273.70;119326;1184;22138;-50
2022/04/13 10:41:15;;;;;;;2.50;1.40;;;;;;;14.21;36.64;100276.02;119302;1185;22145;-56
2022/04/13 10:43:50;;;;;;;6.70;1.80;;;;;;;14.23;36.89;100274.88;119303;1185;21781;-50
2022/04/13 10:46:20;;;;;;;3.80;1.20;;;;;;;14.26;36.66;100271.80;119372;1185;21829;-50
2022/04/13 10:48:53;;;;;;;2.10;0.80;;;;;;;14.24;36.39;100270.09;119207;1185;21774;-56
2022/04/13 10:51:28;;;;;;;3.50;1.10;;;;;;;14.24;36.54;100268.14;118285;1185;23446;-48
2022/04/13 10:54:03;;;;;;;2.80;1.30;;;;;;;14.26;36.12;100270.20;119334;1185;22232;-51
2022/04/13 10:56:32;;;;;;;5.60;1.70;;;;;;;14.28;36.33;100269.27;117308;1185;22649;-48
2022/04/13 10:59:24;;;;;;;4.10;1.80;;;;;;;14.35;36.59;100265.71;119311;1185;22178;-49
2022/04/13 11:01:59;;;;;;;9.00;4.50;;;;;;;14.47;36.39;100263.23;119289;1185;21713;-52
2022/04/13 11:04:28;;;;;;;4.20;2.00;;;;;;;14.60;36.64;100268.48;119356;1183;21752;-50
2022/04/13 11:06:56;;;;;;;8.20;4.10;;;;;;;14.67;36.60;100265.48;119367;1185;21830;-51
2022/04/13 11:09:38;;;;;;;5.20;2.00;;;;;;;14.74;36.40;100264.91;119255;1185;22257;-56
2022/04/13 11:12:07;;;;;;;5.40;2.60;;;;;;;14.74;36.16;100264.91;119190;1185;21720;-56
2022/04/13 11:14:47;;;;;;;4.10;1.50;;;;;;;14.69;36.16;100267.50;118203;1186;23576;-56
2022/04/13 11:17:15;;;;;;;3.90;1.50;;;;;;;14.65;36.22;100254.02;118682;1185;22297;-49
2022/04/13 11:19:43;;;;;;;4.10;1.30;;;;;;;14.67;36.47;100249.75;117294;1186;22998;-49
2022/04/13 11:22:13;;;;;;;3.00;1.40;;;;;;;14.71;36.38;100249.11;117669;1184;22117;-50
2022/04/13 11:24:45;;;;;;;4.00;1.70;;;;;;;14.74;36.26;100249.92;119339;1185;21851;-50
2022/04/13 11:27:14;;;;;;;4.00;2.60;;;;;;;14.78;36.20;100245.36;119304;1184;22115;-58
2022/04/13 11:29:58;;;;;;;4.20;1.70;;;;;;;14.81;36.23;100249.67;119371;1184;21832;-57
2022/04/13 11:32:32;;;;;;;4.50;1.40;;;;;;;14.90;36.52;100247.46;119284;1185;21783;-56
2022/04/13 11:35:02;;;;;;;3.10;1.10;;;;;;;15.03;36.04;100244.73;119369;1185;22140;-56
2022/04/13 11:37:36;;;;;;;3.90;1.40;;;;;;;15.07;36.25;100249.04;119361;1184;21819;-49
2022/04/13 11:40:07;;;;;;;4.30;2.00;;;;;;;15.09;35.59;100247.89;119323;1185;21744;-49
2022/04/13 11:42:35;;;;;;;3.70;1.90;;;;;;;15.09;35.83;100243.47;119333;1185;21897;-57
2022/04/13 11:45:11;;;;;;;4.20;1.30;;;;;;;15.07;35.78;100254.48;119362;1185;21748;-50